Time,TemperatureF,DewpointF,PressureIn,WindDirection,WindDirectionDegrees,WindSpeedMPH,WindSpeedGustMPH,Humidity,HourlyPrecipIn,Conditions,Clouds,dailyrainin,SoftwareType,DateUTC
2013-06-24 00:03:00,70.2,67.1,29.31,South,182,0.0,9.0,90,0.00,,,0.00,meteohub,2013-06-24 05:03:00,
2013-06-24 00:08:00,70.2,67.1,29.31,South,186,0.0,9.0,90,0.00,,,0.00,meteohub,2013-06-24 05:08:00,
2013-06-24 00:13:00,70.0,66.9,29.31,SSW,198,2.0,5.0,90,0.00,,,0.00,meteohub,2013-06-24 05:13:00,
2013-06-24 00:18:00,70.0,66.9,29.31,South,186,3.0,6.0,90,0.00,,,0.00,meteohub,2013-06-24 05:18:00,
2013-06-24 00:23:00,70.0,66.9,29.31,South,175,5.0,9.0,90,0.00,,,0.00,meteohub,2013-06-24 05:23:00,
2013-06-24 00:28:00,70.0,66.9,29.31,SSW,192,0.0,10.0,90,0.00,,,0.00,meteohub,2013-06-24 05:28:00,
2013-06-24 00:37:00,69.8,66.7,29.31,SSE,148,0.0,10.0,90,0.00,,,0.00,meteohub,2013-06-24 05:37:00,
2013-06-24 00:42:00,69.8,66.7,29.31,South,179,1.0,10.0,90,0.00,,,0.00,meteohub,2013-06-24 05:42:00,
2013-06-24 00:50:00,69.6,66.6,29.31,South,174,12.0,12.0,90,0.00,,,0.00,meteohub,2013-06-24 05:50:00,
2013-06-24 00:55:00,69.6,66.6,29.31,South,183,2.0,12.0,90,0.00,,,0.00,meteohub,2013-06-24 05:55:00,
2013-06-24 01:02:00,69.6,66.6,29.30,SSW,212,5.0,12.0,90,0.00,,,0.00,meteohub,2013-06-24 06:02:00,
2013-06-24 01:07:00,69.6,66.6,29.30,South,186,1.0,12.0,90,0.00,,,0.00,meteohub,2013-06-24 06:07:00,
2013-06-24 01:12:00,69.6,66.2,29.30,SSW,205,5.0,12.0,89,0.00,,,0.00,meteohub,2013-06-24 06:12:00,
2013-06-24 01:18:00,69.8,66.4,29.31,South,176,10.0,12.0,89,0.00,,,0.00,meteohub,2013-06-24 06:18:00,
2013-06-24 01:26:00,69.8,66.4,29.31,South,169,6.0,11.0,89,0.00,,,0.00,meteohub,2013-06-24 06:26:00,
2013-06-24 01:34:00,70.0,66.2,29.31,South,187,10.0,12.0,88,0.00,,,0.00,meteohub,2013-06-24 06:34:00,
2013-06-24 01:41:00,70.0,66.2,29.31,South,184,5.0,12.0,88,0.00,,,0.00,meteohub,2013-06-24 06:41:00,
2013-06-24 01:47:00,70.0,66.0,29.31,SSE,165,6.0,11.0,87,0.00,,,0.00,meteohub,2013-06-24 06:47:00,
2013-06-24 01:52:00,70.2,66.0,29.31,South,191,0.0,11.0,87,0.00,,,0.00,meteohub,2013-06-24 06:52:00,
2013-06-24 02:02:00,70.3,66.2,29.30,SSW,204,3.0,14.0,87,0.00,,,0.00,meteohub,2013-06-24 07:02:00,
2013-06-24 02:07:00,70.3,66.2,29.30,South,178,3.0,14.0,87,0.00,,,0.00,meteohub,2013-06-24 07:07:00,
2013-06-24 02:12:00,70.5,66.2,29.30,South,188,1.0,14.0,86,0.00,,,0.00,meteohub,2013-06-24 07:12:00,
2013-06-24 02:19:00,70.5,66.2,29.30,SSW,192,6.0,12.0,86,0.00,,,0.00,meteohub,2013-06-24 07:19:00,
2013-06-24 02:25:00,70.5,66.2,29.30,SSW,194,6.0,12.0,86,0.00,,,0.00,meteohub,2013-06-24 07:25:00,
2013-06-24 02:32:00,70.9,66.6,29.29,SW,225,0.0,10.0,86,0.00,,,0.00,meteohub,2013-06-24 07:32:00,
2013-06-24 02:37:00,70.9,66.6,29.29,WSW,240,1.0,8.0,86,0.00,,,0.00,meteohub,2013-06-24 07:37:00,
2013-06-24 02:42:00,71.1,66.9,29.29,SSW,198,3.0,10.0,87,0.00,,,0.00,meteohub,2013-06-24 07:42:00,
2013-06-24 02:49:00,70.9,66.7,29.29,SSW,195,4.0,10.0,87,0.00,,,0.00,meteohub,2013-06-24 07:49:00,
2013-06-24 02:56:00,71.1,66.9,29.30,SW,221,3.0,10.0,87,0.00,,,0.00,meteohub,2013-06-24 07:56:00,
2013-06-24 03:02:00,71.1,66.9,29.30,South,180,0.0,9.0,87,0.00,,,0.00,meteohub,2013-06-24 08:02:00,
2013-06-24 03:08:00,71.2,67.1,29.29,SSW,194,0.0,9.0,87,0.00,,,0.00,meteohub,2013-06-24 08:08:00,
2013-06-24 03:15:00,71.4,67.3,29.29,SSW,206,0.0,10.0,87,0.00,,,0.00,meteohub,2013-06-24 08:15:00,
2013-06-24 03:21:00,71.4,67.3,29.29,SSW,207,0.0,10.0,87,0.00,,,0.00,meteohub,2013-06-24 08:21:00,
2013-06-24 03:26:00,72.0,67.8,29.29,SSW,194,4.0,10.0,87,0.00,,,0.00,meteohub,2013-06-24 08:26:00,
2013-06-24 03:32:00,72.1,67.6,29.29,SSW,202,0.0,10.0,86,0.00,,,0.00,meteohub,2013-06-24 08:32:00,
2013-06-24 03:42:00,72.1,67.6,29.29,SSW,203,0.0,12.0,86,0.00,,,0.00,meteohub,2013-06-24 08:42:00,
2013-06-24 03:47:00,72.1,67.6,29.29,South,186,4.0,12.0,86,0.00,,,0.00,meteohub,2013-06-24 08:47:00,
2013-06-24 03:53:00,72.1,67.6,29.29,SW,224,0.0,12.0,86,0.00,,,0.00,meteohub,2013-06-24 08:53:00,
2013-06-24 03:59:00,72.1,67.6,29.29,South,169,1.0,12.0,86,0.00,,,0.00,meteohub,2013-06-24 08:59:00,
2013-06-24 04:05:00,72.0,67.5,29.29,SW,227,1.0,9.0,86,0.00,,,0.00,meteohub,2013-06-24 09:05:00,
2013-06-24 04:12:00,71.8,67.6,29.29,SSW,196,5.0,10.0,87,0.00,,,0.00,meteohub,2013-06-24 09:12:00,
2013-06-24 04:17:00,71.8,67.6,29.29,SW,219,5.0,10.0,87,0.00,,,0.00,meteohub,2013-06-24 09:17:00,
2013-06-24 04:23:00,71.6,67.5,29.29,SSW,192,3.0,10.0,87,0.00,,,0.00,meteohub,2013-06-24 09:23:00,
2013-06-24 04:28:00,71.6,67.5,29.29,SSW,209,1.0,10.0,87,0.00,,,0.00,meteohub,2013-06-24 09:28:00,
2013-06-24 04:35:00,71.6,67.5,29.29,SSW,206,4.0,11.0,87,0.00,,,0.00,meteohub,2013-06-24 09:35:00,
2013-06-24 04:42:00,71.8,68.0,29.29,South,190,5.0,11.0,88,0.00,,,0.00,meteohub,2013-06-24 09:42:00,
2013-06-24 04:47:00,71.8,68.0,29.29,South,171,3.0,11.0,88,0.00,,,0.00,meteohub,2013-06-24 09:47:00,
2013-06-24 04:52:00,71.8,68.0,29.29,SSW,193,0.0,12.0,88,0.00,,,0.00,meteohub,2013-06-24 09:52:00,
2013-06-24 04:57:00,71.8,68.0,29.30,SSW,211,5.0,12.0,88,0.00,,,0.00,meteohub,2013-06-24 09:57:00,
2013-06-24 05:02:00,71.8,68.0,29.30,SSW,201,3.0,12.0,88,0.00,,,0.00,meteohub,2013-06-24 10:02:00,
2013-06-24 05:09:00,72.0,68.2,29.30,South,180,4.0,12.0,88,0.00,,,0.00,meteohub,2013-06-24 10:09:00,
2013-06-24 05:17:00,72.0,68.2,29.30,SW,220,0.0,10.0,88,0.00,,,0.00,meteohub,2013-06-24 10:17:00,
2013-06-24 05:22:00,72.0,68.2,29.30,SW,215,6.0,10.0,88,0.00,,,0.00,meteohub,2013-06-24 10:22:00,
2013-06-24 05:27:00,72.0,68.2,29.30,SSW,202,0.0,7.0,88,0.00,,,0.00,meteohub,2013-06-24 10:27:00,
2013-06-24 05:34:00,71.8,68.0,29.31,SSW,192,0.0,7.0,88,0.00,,,0.00,meteohub,2013-06-24 10:34:00,
2013-06-24 05:42:00,71.8,68.0,29.31,SSW,209,0.0,7.0,88,0.00,,,0.00,meteohub,2013-06-24 10:42:00,
2013-06-24 05:49:00,71.8,68.4,29.31,SSW,207,6.0,6.0,89,0.00,,,0.00,meteohub,2013-06-24 10:49:00,
2013-06-24 05:55:00,71.6,68.2,29.31,WSW,246,5.0,7.0,89,0.00,,,0.00,meteohub,2013-06-24 10:55:00,
2013-06-24 06:00:00,71.6,68.2,29.31,SSW,213,0.0,7.0,89,0.00,,,0.00,meteohub,2013-06-24 11:00:00,
2013-06-24 06:07:00,71.8,68.4,29.31,SSW,213,0.0,6.0,89,0.00,,,0.00,meteohub,2013-06-24 11:07:00,
2013-06-24 06:12:00,71.8,68.4,29.32,SSW,203,3.0,5.0,89,0.00,,,0.00,meteohub,2013-06-24 11:12:00,
2013-06-24 06:17:00,71.8,68.4,29.32,South,187,1.0,5.0,89,0.00,,,0.00,meteohub,2013-06-24 11:17:00,
2013-06-24 06:25:00,72.0,68.9,29.31,SSW,194,0.0,8.0,90,0.00,,,0.00,meteohub,2013-06-24 11:25:00,
2013-06-24 06:30:00,72.0,68.5,29.32,SSW,192,2.0,9.0,89,0.00,,,0.00,meteohub,2013-06-24 11:30:00,
2013-06-24 06:37:00,72.1,68.7,29.32,SSW,204,3.0,7.0,89,0.00,,,0.00,meteohub,2013-06-24 11:37:00,
2013-06-24 06:44:00,72.1,68.7,29.33,SSW,200,2.0,6.0,89,0.00,,,0.00,meteohub,2013-06-24 11:44:00,
2013-06-24 06:52:00,72.3,68.9,29.33,SSW,196,0.0,6.0,89,0.00,,,0.00,meteohub,2013-06-24 11:52:00,
2013-06-24 06:57:00,72.5,69.1,29.34,SSW,200,0.0,6.0,89,0.00,,,0.00,meteohub,2013-06-24 11:57:00,
2013-06-24 07:07:00,72.7,69.3,29.34,South,171,0.0,6.0,89,0.00,,,0.00,meteohub,2013-06-24 12:07:00,
2013-06-24 07:15:00,72.9,69.4,29.34,South,181,2.0,7.0,89,0.00,,,0.00,meteohub,2013-06-24 12:15:00,
2013-06-24 07:22:00,73.0,69.6,29.34,SSW,196,0.0,7.0,89,0.00,,,0.00,meteohub,2013-06-24 12:22:00,
2013-06-24 07:27:00,73.2,69.8,29.35,SSW,197,2.0,7.0,89,0.00,,,0.00,meteohub,2013-06-24 12:27:00,
2013-06-24 07:35:00,73.6,69.8,29.34,SSW,193,5.0,6.0,88,0.00,,,0.00,meteohub,2013-06-24 12:35:00,
2013-06-24 07:41:00,73.9,70.2,29.35,South,175,6.0,7.0,88,0.00,,,0.00,meteohub,2013-06-24 12:41:00,
2013-06-24 07:46:00,74.7,70.5,29.35,SSW,209,1.0,7.0,87,0.00,,,0.00,meteohub,2013-06-24 12:46:00,
2013-06-24 07:51:00,75.4,70.9,29.35,South,188,0.0,8.0,86,0.00,,,0.00,meteohub,2013-06-24 12:51:00,
2013-06-24 07:57:00,75.7,70.9,29.35,SSW,209,5.0,7.0,85,0.00,,,0.00,meteohub,2013-06-24 12:57:00,
2013-06-24 08:02:00,75.9,71.1,29.35,SSW,206,3.0,10.0,85,0.00,,,0.00,meteohub,2013-06-24 13:02:00,
2013-06-24 08:07:00,76.3,71.4,29.35,SSW,195,2.0,10.0,85,0.00,,,0.00,meteohub,2013-06-24 13:07:00,
2013-06-24 08:12:00,76.5,71.2,29.35,WSW,245,3.0,9.0,84,0.00,,,0.00,meteohub,2013-06-24 13:12:00,
2013-06-24 08:17:00,76.8,71.2,29.35,SW,218,6.0,10.0,83,0.00,,,0.00,meteohub,2013-06-24 13:17:00,
2013-06-24 08:22:00,77.4,71.8,29.35,South,188,5.0,11.0,83,0.00,,,0.00,meteohub,2013-06-24 13:22:00,
2013-06-24 08:27:00,77.5,71.6,29.36,West,259,5.0,11.0,82,0.00,,,0.00,meteohub,2013-06-24 13:27:00,
2013-06-24 08:32:00,77.7,71.8,29.36,SW,232,1.0,11.0,82,0.00,,,0.00,meteohub,2013-06-24 13:32:00,
2013-06-24 08:37:00,77.9,72.0,29.36,SSW,210,2.0,6.0,82,0.00,,,0.00,meteohub,2013-06-24 13:37:00,
2013-06-24 08:42:00,77.7,71.8,29.36,South,180,3.0,6.0,82,0.00,,,0.00,meteohub,2013-06-24 13:42:00,
2013-06-24 08:50:00,78.3,72.3,29.36,WSW,238,0.0,7.0,82,0.00,,,0.00,meteohub,2013-06-24 13:50:00,
2013-06-24 08:57:00,79.0,72.7,29.36,SW,221,0.0,7.0,81,0.00,,,0.00,meteohub,2013-06-24 13:57:00,
2013-06-24 09:02:00,79.3,72.7,29.36,SSW,197,0.0,9.0,80,0.00,,,0.00,meteohub,2013-06-24 14:02:00,
2013-06-24 09:07:00,79.5,72.5,29.36,SSW,196,2.0,9.0,79,0.00,,,0.00,meteohub,2013-06-24 14:07:00,
2013-06-24 09:12:00,79.9,72.9,29.36,SW,230,0.0,8.0,79,0.00,,,0.00,meteohub,2013-06-24 14:12:00,
2013-06-24 09:17:00,80.4,72.9,29.36,SSW,211,0.0,9.0,78,0.00,,,0.00,meteohub,2013-06-24 14:17:00,
2013-06-24 09:22:00,80.8,72.9,29.36,SSW,212,2.0,9.0,77,0.00,,,0.00,meteohub,2013-06-24 14:22:00,
2013-06-24 09:30:00,80.8,72.9,29.35,SW,232,1.0,9.0,77,0.00,,,0.00,meteohub,2013-06-24 14:30:00,
2013-06-24 09:36:00,80.8,72.9,29.35,SSW,209,3.0,9.0,77,0.00,,,0.00,meteohub,2013-06-24 14:36:00,
2013-06-24 09:41:00,81.9,73.6,29.34,SW,235,3.0,14.0,76,0.00,,,0.00,meteohub,2013-06-24 14:41:00,
2013-06-24 09:47:00,82.0,73.4,29.35,SSW,192,1.0,14.0,75,0.00,,,0.00,meteohub,2013-06-24 14:47:00,
2013-06-24 09:52:00,82.0,72.9,29.35,West,259,6.0,14.0,74,0.00,,,0.00,meteohub,2013-06-24 14:52:00,
2013-06-24 09:57:00,82.0,73.4,29.34,SW,235,6.0,14.0,75,0.00,,,0.00,meteohub,2013-06-24 14:57:00,
2013-06-24 10:03:00,82.0,73.4,29.34,SSW,211,0.0,13.0,75,0.00,,,0.00,meteohub,2013-06-24 15:03:00,
2013-06-24 10:11:00,82.0,73.4,29.34,SSW,197,3.0,13.0,75,0.00,,,0.00,meteohub,2013-06-24 15:11:00,
2013-06-24 10:20:00,82.6,74.3,29.34,SW,215,9.0,12.0,76,0.00,,,0.00,meteohub,2013-06-24 15:20:00,
2013-06-24 10:27:00,84.0,73.9,29.34,SSW,201,9.0,13.0,72,0.00,,,0.00,meteohub,2013-06-24 15:27:00,
2013-06-24 10:32:00,84.6,74.1,29.35,South,175,4.0,13.0,71,0.00,,,0.00,meteohub,2013-06-24 15:32:00,
2013-06-24 10:37:00,84.7,74.3,29.34,SW,227,1.0,13.0,71,0.00,,,0.00,meteohub,2013-06-24 15:37:00,
2013-06-24 10:42:00,85.3,74.3,29.34,SSW,198,3.0,14.0,70,0.00,,,0.00,meteohub,2013-06-24 15:42:00,
2013-06-24 10:49:00,85.3,73.9,29.34,SW,219,5.0,14.0,69,0.00,,,0.00,meteohub,2013-06-24 15:49:00,
2013-06-24 10:54:00,85.5,74.5,29.34,South,178,7.0,14.0,70,0.00,,,0.00,meteohub,2013-06-24 15:54:00,
2013-06-24 11:01:00,85.8,74.8,29.34,WSW,248,1.0,14.0,70,0.00,,,0.00,meteohub,2013-06-24 16:01:00,
2013-06-24 11:07:00,86.4,74.5,29.33,SW,216,11.0,14.0,68,0.00,,,0.00,meteohub,2013-06-24 16:07:00,
2013-06-24 11:12:00,86.4,74.5,29.33,WSW,250,6.0,14.0,68,0.00,,,0.00,meteohub,2013-06-24 16:12:00,
2013-06-24 11:21:00,86.5,74.7,29.33,WSW,254,2.0,14.0,68,0.00,,,0.00,meteohub,2013-06-24 16:21:00,
2013-06-24 11:27:00,87.3,75.4,29.32,SSW,209,5.0,16.0,68,0.00,,,0.00,meteohub,2013-06-24 16:27:00,
2013-06-24 11:32:00,87.1,74.3,29.31,South,188,2.0,13.0,66,0.00,,,0.00,meteohub,2013-06-24 16:32:00,
2013-06-24 11:37:00,86.4,74.1,29.31,SW,223,6.0,16.0,67,0.00,,,0.00,meteohub,2013-06-24 16:37:00,
2013-06-24 11:42:00,86.2,74.3,29.31,SW,221,12.0,16.0,68,0.00,,,0.00,meteohub,2013-06-24 16:42:00,
2013-06-24 11:51:00,86.2,74.3,29.31,SSW,210,5.0,16.0,68,0.00,,,0.00,meteohub,2013-06-24 16:51:00,
2013-06-24 11:57:00,86.2,74.8,29.32,West,266,4.0,16.0,69,0.00,,,0.00,meteohub,2013-06-24 16:57:00,
2013-06-24 12:02:00,86.2,74.8,29.33,SSW,192,6.0,16.0,69,0.00,,,0.00,meteohub,2013-06-24 17:02:00,
2013-06-24 12:09:00,86.2,74.3,29.33,SW,216,6.0,16.0,68,0.00,,,0.00,meteohub,2013-06-24 17:09:00,
2013-06-24 12:15:00,86.7,74.8,29.33,West,265,2.0,14.0,68,0.00,,,0.00,meteohub,2013-06-24 17:15:00,
2013-06-24 12:22:00,87.1,74.8,29.33,SSW,198,12.0,14.0,67,0.00,,,0.00,meteohub,2013-06-24 17:22:00,
2013-06-24 12:27:00,87.3,74.1,29.32,West,263,4.0,15.0,65,0.00,,,0.00,meteohub,2013-06-24 17:27:00,
2013-06-24 12:33:00,87.4,74.7,29.32,South,172,3.0,15.0,66,0.00,,,0.00,meteohub,2013-06-24 17:33:00,
2013-06-24 12:38:00,87.6,74.8,29.32,WSW,258,3.0,16.0,66,0.00,,,0.00,meteohub,2013-06-24 17:38:00,
2013-06-24 12:43:00,88.0,74.7,29.32,SW,215,6.0,16.0,65,0.00,,,0.00,meteohub,2013-06-24 17:43:00,
2013-06-24 12:48:00,88.9,75.6,29.32,SSW,213,2.0,15.0,65,0.00,,,0.00,meteohub,2013-06-24 17:48:00,
2013-06-24 12:53:00,89.1,74.8,29.31,SW,222,3.0,15.0,63,0.00,,,0.00,meteohub,2013-06-24 17:53:00,
2013-06-24 13:00:00,89.2,74.5,29.31,West,268,7.0,15.0,62,0.00,,,0.00,meteohub,2013-06-24 18:00:00,
2013-06-24 13:07:00,89.2,74.5,29.31,WSW,253,9.0,16.0,62,0.00,,,0.00,meteohub,2013-06-24 18:07:00,
2013-06-24 13:15:00,89.6,74.3,29.31,SW,236,10.0,16.0,61,0.00,,,0.00,meteohub,2013-06-24 18:15:00,
2013-06-24 13:23:00,89.4,74.7,29.31,WSW,244,0.0,17.0,62,0.00,,,0.00,meteohub,2013-06-24 18:23:00,
2013-06-24 13:28:00,89.4,74.7,29.30,WSW,242,11.0,17.0,62,0.00,,,0.00,meteohub,2013-06-24 18:28:00,
2013-06-24 13:34:00,89.2,74.5,29.30,WSW,257,3.0,15.0,62,0.00,,,0.00,meteohub,2013-06-24 18:34:00,
2013-06-24 13:41:00,89.4,74.7,29.30,SSW,213,0.0,18.0,62,0.00,,,0.00,meteohub,2013-06-24 18:41:00,
2013-06-24 13:46:00,89.8,74.5,29.30,SW,228,13.0,18.0,61,0.00,,,0.00,meteohub,2013-06-24 18:46:00,
2013-06-24 13:51:00,90.0,74.7,29.30,SSW,205,6.0,19.0,61,0.00,,,0.00,meteohub,2013-06-24 18:51:00,
2013-06-24 13:57:00,90.0,74.7,29.30,SW,236,11.0,17.0,61,0.00,,,0.00,meteohub,2013-06-24 18:57:00,
2013-06-24 14:05:00,90.3,74.5,29.31,West,271,4.0,16.0,60,0.00,,,0.00,meteohub,2013-06-24 19:05:00,
2013-06-24 14:10:00,90.1,74.3,29.31,WSW,249,10.0,17.0,60,0.00,,,0.00,meteohub,2013-06-24 19:10:00,
2013-06-24 14:15:00,90.5,74.7,29.31,WSW,257,3.0,18.0,60,0.00,,,0.00,meteohub,2013-06-24 19:15:00,
2013-06-24 14:20:00,90.5,74.7,29.32,West,277,4.0,18.0,60,0.00,,,0.00,meteohub,2013-06-24 19:20:00,
2013-06-24 14:25:00,90.9,74.1,29.31,SW,227,5.0,16.0,58,0.00,,,0.00,meteohub,2013-06-24 19:25:00,
2013-06-24 14:32:00,90.3,74.1,29.30,West,273,0.0,16.0,59,0.00,,,0.00,meteohub,2013-06-24 19:32:00,
2013-06-24 14:38:00,90.3,74.5,29.30,SW,223,14.0,16.0,60,0.00,,,0.00,meteohub,2013-06-24 19:38:00,
2013-06-24 14:43:00,90.7,74.8,29.29,SW,235,8.0,16.0,60,0.00,,,0.00,meteohub,2013-06-24 19:43:00,
2013-06-24 14:50:00,90.9,74.5,29.29,West,280,2.0,16.0,59,0.00,,,0.00,meteohub,2013-06-24 19:50:00,
2013-06-24 14:57:00,91.8,74.3,29.29,SW,216,5.0,16.0,57,0.00,,,0.00,meteohub,2013-06-24 19:57:00,
2013-06-24 15:02:00,91.8,73.8,29.28,SW,234,4.0,18.0,56,0.00,,,0.00,meteohub,2013-06-24 20:02:00,
2013-06-24 15:07:00,91.8,74.3,29.27,West,277,3.0,18.0,57,0.00,,,0.00,meteohub,2013-06-24 20:07:00,
2013-06-24 15:12:00,91.9,74.5,29.28,SW,215,10.0,16.0,57,0.00,,,0.00,meteohub,2013-06-24 20:12:00,
2013-06-24 15:17:00,92.1,74.7,29.27,SW,229,5.0,16.0,57,0.00,,,0.00,meteohub,2013-06-24 20:17:00,
2013-06-24 15:22:00,91.9,73.9,29.28,SW,217,1.0,17.0,56,0.00,,,0.00,meteohub,2013-06-24 20:22:00,
2013-06-24 15:28:00,92.1,74.7,29.29,WSW,241,6.0,17.0,57,0.00,,,0.00,meteohub,2013-06-24 20:28:00,
2013-06-24 15:33:00,92.5,75.6,29.28,West,262,5.0,15.0,58,0.00,,,0.00,meteohub,2013-06-24 20:33:00,
2013-06-24 15:38:00,92.5,74.5,29.29,SW,221,5.0,15.0,56,0.00,,,0.00,meteohub,2013-06-24 20:38:00,
2013-06-24 15:43:00,92.5,73.4,29.28,SW,227,6.0,13.0,54,0.00,,,0.00,meteohub,2013-06-24 20:43:00,
2013-06-24 15:50:00,92.5,73.9,29.27,SW,234,2.0,16.0,55,0.00,,,0.00,meteohub,2013-06-24 20:50:00,
2013-06-24 15:55:00,92.5,75.0,29.27,South,169,5.0,16.0,57,0.00,,,0.00,meteohub,2013-06-24 20:55:00,
2013-06-24 16:00:00,92.5,74.5,29.27,WSW,252,13.0,16.0,56,0.00,,,0.00,meteohub,2013-06-24 21:00:00,
2013-06-24 16:06:00,92.1,73.0,29.26,SSW,199,5.0,15.0,54,0.00,,,0.00,meteohub,2013-06-24 21:06:00,
2013-06-24 16:12:00,92.3,74.8,29.26,West,273,5.0,14.0,57,0.00,,,0.00,meteohub,2013-06-24 21:12:00,
2013-06-24 16:17:00,92.3,73.8,29.26,SSW,194,0.0,13.0,55,0.00,,,0.00,meteohub,2013-06-24 21:17:00,
2013-06-24 16:22:00,92.1,73.6,29.26,SW,232,3.0,13.0,55,0.00,,,0.00,meteohub,2013-06-24 21:22:00,
2013-06-24 16:30:00,91.9,74.5,29.26,SW,231,4.0,15.0,57,0.00,,,0.00,meteohub,2013-06-24 21:30:00,
2013-06-24 16:36:00,91.8,74.3,29.27,SW,218,8.0,13.0,57,0.00,,,0.00,meteohub,2013-06-24 21:36:00,
2013-06-24 16:41:00,91.6,74.1,29.26,South,189,10.0,13.0,57,0.00,,,0.00,meteohub,2013-06-24 21:41:00,
2013-06-24 16:47:00,91.4,73.4,29.26,SW,214,6.0,12.0,56,0.00,,,0.00,meteohub,2013-06-24 21:47:00,
2013-06-24 16:52:00,91.2,72.9,29.26,WSW,240,2.0,15.0,55,0.00,,,0.00,meteohub,2013-06-24 21:52:00,
2013-06-24 16:57:00,91.0,73.8,29.26,SW,216,0.0,15.0,57,0.00,,,0.00,meteohub,2013-06-24 21:57:00,
2013-06-24 17:04:00,90.9,72.5,29.26,SSW,201,3.0,15.0,55,0.00,,,0.00,meteohub,2013-06-24 22:04:00,
2013-06-24 17:12:00,91.0,73.2,29.26,South,170,2.0,13.0,56,0.00,,,0.00,meteohub,2013-06-24 22:12:00,
2013-06-24 17:19:00,90.9,72.5,29.26,SW,215,0.0,13.0,55,0.00,,,0.00,meteohub,2013-06-24 22:19:00,
2013-06-24 17:27:00,90.5,72.1,29.26,ENE,57,3.0,13.0,55,0.00,,,0.00,meteohub,2013-06-24 22:27:00,
2013-06-24 17:32:00,89.6,70.2,29.26,NNE,19,3.0,10.0,53,0.00,,,0.00,meteohub,2013-06-24 22:32:00,
2013-06-24 17:37:00,88.0,68.7,29.26,NE,53,1.0,7.0,53,0.00,,,0.00,meteohub,2013-06-24 22:37:00,
2013-06-24 17:42:00,86.5,68.9,29.26,ENE,62,3.0,7.0,56,0.00,,,0.00,meteohub,2013-06-24 22:42:00,
2013-06-24 17:48:00,85.5,68.5,29.26,NNE,18,2.0,7.0,57,0.00,,,0.00,meteohub,2013-06-24 22:48:00,
2013-06-24 17:53:00,84.0,68.7,29.26,NNE,15,4.0,10.0,60,0.00,,,0.00,meteohub,2013-06-24 22:53:00,
2013-06-24 18:00:00,83.1,68.7,29.26,NE,42,0.0,10.0,62,0.00,,,0.00,meteohub,2013-06-24 23:00:00,
2013-06-24 18:06:00,82.8,68.4,29.26,ENE,63,0.0,9.0,62,0.00,,,0.00,meteohub,2013-06-24 23:06:00,
2013-06-24 18:11:00,82.4,68.5,29.26,NE,52,3.0,5.0,63,0.00,,,0.00,meteohub,2013-06-24 23:11:00,
2013-06-24 18:17:00,82.0,68.7,29.26,ENE,76,0.0,6.0,64,0.00,,,0.00,meteohub,2013-06-24 23:17:00,
2013-06-24 18:22:00,82.0,69.1,29.26,East,89,0.0,6.0,65,0.00,,,0.00,meteohub,2013-06-24 23:22:00,
2013-06-24 18:27:00,81.9,68.9,29.26,East,89,0.0,4.0,65,0.00,,,0.00,meteohub,2013-06-24 23:27:00,
2013-06-24 18:35:00,81.9,68.9,29.26,ENE,65,0.0,4.0,65,0.00,,,0.00,meteohub,2013-06-24 23:35:00,
2013-06-24 18:40:00,82.0,69.6,29.26,ENE,74,0.0,4.0,66,0.00,,,0.00,meteohub,2013-06-24 23:40:00,
2013-06-24 18:45:00,82.2,69.3,29.26,East,88,0.0,4.0,65,0.00,,,0.00,meteohub,2013-06-24 23:45:00,
2013-06-24 18:52:00,82.2,69.8,29.26,East,88,0.0,4.0,66,0.00,,,0.00,meteohub,2013-06-24 23:52:00,
2013-06-24 18:58:00,82.2,69.8,29.26,East,86,0.0,4.0,66,0.00,,,0.00,meteohub,2013-06-24 23:58:00,
2013-06-24 19:03:00,82.2,69.8,29.26,East,85,0.0,4.0,66,0.00,,,0.00,meteohub,2013-06-25 00:03:00,
2013-06-24 19:11:00,82.2,70.2,29.26,East,80,0.0,3.0,67,0.00,,,0.00,meteohub,2013-06-25 00:11:00,
2013-06-24 19:16:00,82.2,70.2,29.25,East,84,0.0,3.0,67,0.00,,,0.00,meteohub,2013-06-25 00:16:00,
2013-06-24 19:22:00,82.0,70.3,29.24,SE,128,2.0,3.0,68,0.00,,,0.00,meteohub,2013-06-25 00:22:00,
2013-06-24 19:27:00,81.9,70.7,29.23,SE,128,0.0,6.0,69,0.00,,,0.00,meteohub,2013-06-25 00:27:00,
2013-06-24 19:32:00,81.7,70.5,29.22,SE,130,1.0,6.0,69,0.00,,,0.00,meteohub,2013-06-25 00:32:00,
2013-06-24 19:37:00,81.7,70.9,29.22,SE,130,2.0,6.0,70,0.00,,,0.00,meteohub,2013-06-25 00:37:00,
2013-06-24 19:45:00,81.5,70.7,29.21,SE,130,0.0,5.0,70,0.00,,,0.00,meteohub,2013-06-25 00:45:00,
2013-06-24 19:50:00,81.5,71.6,29.21,SE,144,1.0,7.0,72,0.00,,,0.00,meteohub,2013-06-25 00:50:00,
2013-06-24 19:55:00,81.7,72.1,29.21,SE,144,2.0,7.0,73,0.00,,,0.00,meteohub,2013-06-25 00:55:00,
2013-06-24 20:01:00,81.7,72.5,29.21,SE,145,0.0,5.0,74,0.00,,,0.00,meteohub,2013-06-25 01:01:00,
2013-06-24 20:06:00,81.9,72.7,29.21,SE,145,0.0,5.0,74,0.00,,,0.00,meteohub,2013-06-25 01:06:00,
2013-06-24 20:12:00,82.2,73.6,29.21,SSW,194,7.0,9.0,75,0.00,,,0.00,meteohub,2013-06-25 01:12:00,
2013-06-24 20:17:00,82.9,73.8,29.21,SSW,198,3.0,10.0,74,0.00,,,0.00,meteohub,2013-06-25 01:17:00,
2013-06-24 20:23:00,83.1,73.6,29.21,South,178,5.0,10.0,73,0.00,,,0.00,meteohub,2013-06-25 01:23:00,
2013-06-24 20:29:00,83.7,73.6,29.20,SSE,162,3.0,10.0,72,0.00,,,0.00,meteohub,2013-06-25 01:29:00,
2013-06-24 20:34:00,84.2,73.8,29.18,South,188,3.0,13.0,71,0.00,,,0.00,meteohub,2013-06-25 01:34:00,
2013-06-24 20:41:00,84.2,73.8,29.18,South,183,6.0,13.0,71,0.00,,,0.00,meteohub,2013-06-25 01:41:00,
2013-06-24 20:46:00,84.2,73.8,29.18,SE,145,13.0,15.0,71,0.00,,,0.00,meteohub,2013-06-25 01:46:00,
2013-06-24 20:52:00,84.2,73.4,29.18,SSW,207,2.0,14.0,70,0.00,,,0.00,meteohub,2013-06-25 01:52:00,
2013-06-24 20:57:00,84.2,73.4,29.18,South,176,4.0,17.0,70,0.00,,,0.00,meteohub,2013-06-25 01:57:00,
2013-06-24 21:02:00,84.2,72.9,29.18,South,181,3.0,17.0,69,0.00,,,0.00,meteohub,2013-06-25 02:02:00,
2013-06-24 21:07:00,84.2,72.9,29.17,South,178,0.0,16.0,69,0.00,,,0.00,meteohub,2013-06-25 02:07:00,
2013-06-24 21:12:00,84.0,72.7,29.18,South,177,3.0,16.0,69,0.00,,,0.00,meteohub,2013-06-25 02:12:00,
2013-06-24 21:17:00,84.0,72.7,29.18,SE,142,7.0,16.0,69,0.00,,,0.00,meteohub,2013-06-25 02:17:00,
2013-06-24 21:25:00,84.0,72.7,29.18,SSW,207,5.0,16.0,69,0.00,,,0.00,meteohub,2013-06-25 02:25:00,
2013-06-24 21:31:00,84.0,72.3,29.17,South,191,15.0,18.0,68,0.00,,,0.00,meteohub,2013-06-25 02:31:00,
2013-06-24 21:37:00,83.8,72.1,29.18,South,182,4.0,18.0,68,0.00,,,0.00,meteohub,2013-06-25 02:37:00,
2013-06-24 21:42:00,83.8,72.1,29.18,SSE,163,6.0,17.0,68,0.00,,,0.00,meteohub,2013-06-25 02:42:00,
2013-06-24 21:47:00,83.8,72.1,29.18,SSE,162,6.0,17.0,68,0.00,,,0.00,meteohub,2013-06-25 02:47:00,
2013-06-24 21:52:00,83.8,71.8,29.19,South,179,7.0,16.0,67,0.00,,,0.00,meteohub,2013-06-25 02:52:00,
2013-06-24 21:57:00,83.7,71.6,29.19,SSE,158,6.0,16.0,67,0.00,,,0.00,meteohub,2013-06-25 02:57:00,
2013-06-24 22:02:00,83.7,71.6,29.19,South,174,4.0,17.0,67,0.00,,,0.00,meteohub,2013-06-25 03:02:00,
2013-06-24 22:07:00,83.7,71.6,29.20,South,180,10.0,17.0,67,0.00,,,0.00,meteohub,2013-06-25 03:07:00,
2013-06-24 22:12:00,83.7,72.0,29.20,SSW,199,12.0,18.0,68,0.00,,,0.00,meteohub,2013-06-25 03:12:00,
2013-06-24 22:22:00,83.5,71.8,29.20,South,179,4.0,17.0,68,0.00,,,0.00,meteohub,2013-06-25 03:22:00,
2013-06-24 22:29:00,83.3,72.1,29.20,South,173,13.0,17.0,69,0.00,,,0.00,meteohub,2013-06-25 03:29:00,
2013-06-24 22:36:00,83.1,72.0,29.21,SSW,193,6.0,17.0,69,0.00,,,0.00,meteohub,2013-06-25 03:36:00,
2013-06-24 22:42:00,82.9,72.1,29.21,SSW,202,0.0,15.0,70,0.00,,,0.00,meteohub,2013-06-25 03:42:00,
2013-06-24 22:50:00,82.8,72.0,29.21,SW,218,4.0,12.0,70,0.00,,,0.00,meteohub,2013-06-25 03:50:00,
2013-06-24 22:57:00,82.6,72.1,29.21,South,190,4.0,13.0,71,0.00,,,0.00,meteohub,2013-06-25 03:57:00,
2013-06-24 23:01:00,82.6,72.1,29.21,SSW,195,4.0,13.0,71,0.00,,,0.00,meteohub,2013-06-25 04:01:00,
2013-06-24 23:02:00,82.2,72.0,29.21,SSW,199,4.0,13.0,71,0.00,,,0.00,meteohub,2013-06-25 04:02:00,
2013-06-24 23:07:00,82.2,72.3,29.22,South,178,0.0,12.0,72,0.00,,,0.00,meteohub,2013-06-25 04:07:00,
2013-06-24 23:12:00,82.0,72.1,29.22,SW,229,2.0,12.0,72,0.00,,,0.00,meteohub,2013-06-25 04:12:00,
2013-06-24 23:17:00,82.0,72.1,29.22,SSW,207,1.0,12.0,72,0.00,,,0.00,meteohub,2013-06-25 04:17:00,
2013-06-24 23:22:00,81.9,72.0,29.23,SW,231,2.0,10.0,72,0.00,,,0.00,meteohub,2013-06-25 04:22:00,
2013-06-24 23:27:00,81.9,72.3,29.23,SSW,213,0.0,10.0,73,0.00,,,0.00,meteohub,2013-06-25 04:27:00,
2013-06-24 23:32:00,81.7,72.1,29.23,SW,236,0.0,11.0,73,0.00,,,0.00,meteohub,2013-06-25 04:32:00,
2013-06-24 23:37:00,81.7,72.1,29.24,WSW,246,0.0,11.0,73,0.00,,,0.00,meteohub,2013-06-25 04:37:00,
2013-06-24 23:42:00,81.7,72.1,29.24,SW,215,0.0,11.0,73,0.00,,,0.00,meteohub,2013-06-25 04:42:00,
2013-06-24 23:47:00,81.5,72.0,29.24,SW,215,0.0,7.0,73,0.00,,,0.00,meteohub,2013-06-25 04:47:00,
2013-06-24 23:52:00,81.3,72.3,29.24,South,182,3.0,9.0,74,0.00,,,0.00,meteohub,2013-06-25 04:52:00,
2013-06-24 23:57:00,81.3,72.3,29.24,SW,216,0.0,9.0,74,0.00,,,0.00,meteohub,2013-06-25 04:57:00,